createdAt,value
2018-06-20T00:00:58.926Z,65.83
2018-06-20T00:02:04.949Z,65.77
2018-06-20T00:03:10.879Z,65.25
2018-06-20T00:04:16.887Z,65.94
2018-06-20T00:05:22.940Z,65.43
2018-06-20T00:06:29.104Z,65.34
2018-06-20T00:07:35.133Z,66.31
2018-06-20T00:08:51.349Z,65.53
2018-06-20T00:09:57.313Z,66.05
2018-06-20T00:11:03.262Z,65.46
2018-06-20T00:12:09.337Z,65.51
2018-06-20T00:13:15.280Z,65.82
2018-06-20T00:14:21.259Z,65.36
2018-06-20T00:15:27.281Z,65.52
2018-06-20T00:16:33.294Z,65.51
2018-06-20T00:17:39.307Z,64.93
2018-06-20T00:18:45.290Z,64.67
2018-06-20T00:19:51.230Z,64.61
2018-06-20T00:20:57.181Z,64.62
2018-06-20T00:22:03.252Z,64.59
2018-06-20T00:23:09.310Z,64.24
2018-06-20T00:24:15.255Z,64.54
2018-06-20T00:25:21.371Z,64.88
2018-06-20T00:26:27.534Z,64.55
2018-06-20T00:27:33.485Z,64.15
2018-06-20T00:28:39.608Z,64.08
2018-06-20T00:29:45.545Z,64.15
2018-06-20T00:30:51.140Z,64.03
2018-06-20T00:31:57.471Z,64.68
2018-06-20T00:33:03.534Z,64.30
2018-06-20T00:34:09.483Z,64.23
2018-06-20T00:35:15.425Z,64.35
2018-06-20T00:36:21.466Z,64.27
2018-06-20T00:37:27.469Z,63.44
2018-06-20T00:38:33.377Z,64.16
2018-06-20T00:39:39.267Z,63.50
2018-06-20T00:40:45.247Z,63.94
2018-06-20T00:41:51.195Z,64.06
2018-06-20T00:42:57.212Z,63.88
2018-06-20T00:44:03.294Z,63.13
2018-06-20T00:45:09.254Z,63.11
2018-06-20T00:46:15.262Z,64.01
2018-06-20T00:47:21.222Z,63.27
2018-06-20T00:48:27.227Z,63.94
2018-06-20T00:49:33.176Z,63.89
2018-06-20T00:50:39.590Z,63.96
2018-06-20T00:51:45.531Z,63.56
2018-06-20T00:52:51.477Z,63.07
2018-06-20T00:53:57.419Z,63.18
2018-06-20T00:55:03.502Z,63.22
2018-06-20T00:56:28.786Z,63.95
2018-06-20T00:57:34.789Z,64.24
2018-06-20T00:58:40.394Z,63.34
2018-06-20T00:59:46.585Z,63.76
2018-06-20T01:00:52.567Z,64.08
2018-06-20T01:01:58.676Z,64.05
2018-06-20T01:03:05.347Z,63.20
2018-06-20T01:04:11.310Z,63.40
2018-06-20T01:05:17.277Z,63.85
2018-06-20T01:06:23.745Z,63.12
2018-06-20T01:07:29.718Z,63.32
2018-06-20T01:08:35.685Z,63.78
2018-06-20T01:09:41.655Z,63.98
2018-06-20T01:10:47.620Z,64.19
2018-06-20T01:11:53.799Z,63.89
2018-06-20T01:12:59.878Z,64.37
2018-06-20T01:14:06.548Z,64.37
2018-06-20T01:15:12.525Z,64.36
2018-06-20T01:16:18.462Z,63.71
2018-06-20T01:17:24.464Z,64.06
2018-06-20T01:18:30.495Z,64.36
2018-06-20T01:19:36.578Z,64.06
2018-06-20T01:20:42.296Z,65.05
2018-06-20T01:21:48.161Z,64.44
2018-06-20T01:22:54.118Z,65.03
2018-06-20T01:24:00.169Z,64.41
2018-06-20T01:25:06.142Z,65.12
2018-06-20T01:26:12.148Z,65.08
2018-06-20T01:27:17.915Z,64.51
2018-06-20T01:28:23.910Z,64.90
2018-06-20T01:29:29.892Z,65.59
2018-06-20T01:30:35.992Z,65.12
2018-06-20T01:31:41.939Z,64.89
2018-06-20T01:32:47.901Z,65.59
2018-06-20T01:33:53.890Z,64.52
2018-06-20T01:34:59.867Z,64.96
2018-06-20T01:36:05.951Z,65.61
2018-06-20T01:37:11.899Z,64.68
2018-06-20T01:38:17.866Z,64.96
2018-06-20T01:39:23.871Z,64.94
2018-06-20T01:40:29.807Z,65.06
2018-06-20T01:41:35.863Z,65.28
2018-06-20T01:42:41.815Z,65.92
2018-06-20T01:43:47.789Z,65.53
2018-06-20T01:44:53.914Z,65.36
2018-06-20T01:45:59.860Z,65.47
2018-06-20T01:47:05.827Z,66.74
2018-06-20T01:48:11.778Z,66.14
2018-06-20T01:49:17.783Z,65.82
2018-06-20T01:50:29.082Z,66.31
2018-06-20T01:51:35.053Z,66.33
2018-06-20T01:52:41.030Z,66.17
2018-06-20T01:53:46.976Z,66.78
2018-06-20T01:54:53.013Z,66.10
2018-06-20T01:55:59.027Z,66.74
2018-06-20T01:57:04.992Z,66.43
2018-06-20T01:58:11.090Z,67.05
2018-06-20T01:59:17.062Z,67.20
2018-06-20T02:00:23.701Z,66.91
2018-06-20T02:01:29.668Z,67.62
2018-06-20T02:02:35.429Z,67.62
2018-06-20T02:03:41.335Z,67.40
2018-06-20T02:04:47.327Z,67.66
2018-06-20T02:05:53.259Z,67.76
2018-06-20T02:06:59.306Z,68.57
2018-06-20T02:08:05.653Z,68.42
2018-06-20T02:09:11.413Z,68.35
2018-06-20T02:10:17.399Z,68.37
2018-06-20T02:11:23.337Z,68.32
2018-06-20T02:12:29.351Z,67.73
2018-06-20T02:13:35.362Z,67.82
2018-06-20T02:14:41.332Z,67.98
2018-06-20T02:15:47.317Z,67.70
2018-06-20T02:16:53.265Z,67.31
2018-06-20T02:17:59.232Z,67.20
2018-06-20T02:19:05.201Z,67.11
2018-06-20T02:20:11.269Z,68.20
2018-06-20T02:21:17.273Z,67.62
2018-06-20T02:22:23.203Z,67.63
2018-06-20T02:23:29.221Z,67.80
2018-06-20T02:24:35.178Z,67.85
2018-06-20T02:25:41.122Z,67.71
2018-06-20T02:26:47.421Z,67.63
2018-06-20T02:27:53.400Z,66.98
2018-06-20T02:28:59.386Z,67.37
2018-06-20T02:30:05.909Z,66.88
2018-06-20T02:31:11.990Z,66.71
2018-06-20T02:32:17.950Z,66.62
2018-06-20T02:33:23.879Z,66.55
2018-06-20T02:34:29.859Z,67.16
2018-06-20T02:35:35.837Z,66.50
2018-06-20T02:36:41.800Z,67.27
2018-06-20T02:37:47.949Z,66.30
2018-06-20T02:38:53.910Z,66.57
2018-06-20T02:39:59.930Z,66.90
2018-06-20T02:41:05.919Z,66.52
2018-06-20T02:42:11.875Z,67.19
2018-06-20T02:43:17.868Z,66.83
2018-06-20T02:44:23.818Z,66.53
2018-06-20T02:45:30.151Z,66.88
2018-06-20T02:46:36.142Z,67.07
2018-06-20T02:47:43.210Z,66.58
2018-06-20T02:48:49.151Z,67.10
2018-06-20T02:49:54.915Z,66.63
2018-06-20T02:51:01.559Z,67.06
2018-06-20T02:52:07.791Z,66.52
2018-06-20T02:53:13.737Z,66.83
2018-06-20T02:54:19.671Z,66.89
2018-06-20T02:55:25.305Z,66.56
2018-06-20T02:56:31.251Z,66.16
2018-06-20T02:57:37.439Z,66.27
2018-06-20T02:58:43.395Z,66.84
2018-06-20T02:59:49.459Z,66.50
2018-06-20T03:00:55.406Z,67.12
2018-06-20T03:02:01.387Z,67.19
2018-06-20T03:03:07.137Z,66.38
2018-06-20T03:04:13.094Z,66.52
2018-06-20T03:05:19.268Z,67.14
2018-06-20T03:06:25.228Z,66.52
2018-06-20T03:07:31.240Z,66.58
2018-06-20T03:08:37.101Z,66.47
2018-06-20T03:09:43.074Z,66.88
2018-06-20T03:10:49.031Z,66.87
2018-06-20T03:11:54.974Z,66.15
2018-06-20T03:13:00.942Z,66.87
2018-06-20T03:14:07.183Z,66.47
2018-06-20T03:15:13.162Z,66.86
2018-06-20T03:16:18.789Z,66.18
2018-06-20T03:17:24.668Z,65.78
2018-06-20T03:18:30.636Z,65.64
2018-06-20T03:19:36.647Z,66.38
2018-06-20T03:20:42.619Z,65.48
2018-06-20T03:21:48.595Z,65.47
2018-06-20T03:22:54.596Z,65.36
2018-06-20T03:24:00.472Z,65.61
2018-06-20T03:25:06.739Z,65.74
2018-06-20T03:26:12.685Z,65.20
2018-06-20T03:27:18.701Z,65.30
2018-06-20T03:28:24.806Z,65.55
2018-06-20T03:29:30.826Z,65.73
2018-06-20T03:30:36.869Z,65.59
2018-06-20T03:31:42.823Z,65.95
2018-06-20T03:32:48.821Z,66.20
2018-06-20T03:33:55.168Z,65.50
2018-06-20T03:35:01.184Z,66.17
2018-06-20T03:36:07.222Z,65.41
2018-06-20T03:37:13.178Z,65.50
2018-06-20T03:38:19.242Z,66.07
2018-06-20T03:39:25.272Z,65.36
2018-06-20T03:40:31.403Z,65.38
2018-06-20T03:41:37.366Z,66.03
2018-06-20T03:42:43.334Z,66.03
2018-06-20T03:43:49.283Z,65.21
2018-06-20T03:44:55.225Z,65.66
2018-06-20T03:46:01.217Z,65.00
2018-06-20T03:47:07.186Z,65.72
2018-06-20T03:48:13.507Z,65.46
2018-06-20T03:49:19.478Z,64.79
2018-06-20T03:50:25.742Z,65.50
2018-06-20T03:51:31.720Z,65.25
2018-06-20T03:52:37.665Z,64.92
2018-06-20T03:53:43.634Z,64.77
2018-06-20T03:54:49.594Z,65.29
2018-06-20T03:55:55.632Z,64.51
2018-06-20T03:57:01.608Z,65.32
2018-06-20T03:58:07.736Z,64.58
2018-06-20T03:59:13.733Z,64.75
2018-06-20T04:00:19.686Z,64.99
2018-06-20T04:01:25.998Z,64.52
2018-06-20T04:02:32.027Z,64.86
2018-06-20T04:03:38.000Z,64.72
2018-06-20T04:04:43.942Z,64.05
2018-06-20T04:05:49.926Z,63.74
2018-06-20T04:06:55.903Z,63.93
2018-06-20T04:08:01.911Z,63.55
2018-06-20T04:09:11.562Z,63.20
2018-06-20T04:10:17.611Z,63.98
2018-06-20T04:11:23.618Z,63.19
2018-06-20T04:12:29.577Z,64.04
2018-06-20T04:13:35.562Z,64.02
2018-06-20T04:14:41.645Z,63.73
2018-06-20T04:15:47.584Z,63.06
2018-06-20T04:16:53.545Z,62.96
2018-06-20T04:17:59.498Z,63.00
2018-06-20T04:19:05.532Z,63.06
2018-06-20T04:20:11.474Z,63.71
2018-06-20T04:21:17.959Z,63.65
2018-06-20T04:22:23.996Z,62.86
2018-06-20T04:23:29.933Z,62.79
2018-06-20T04:24:35.911Z,63.17
2018-06-20T04:25:41.890Z,63.36
2018-06-20T04:26:47.906Z,62.39
2018-06-20T04:27:53.858Z,63.16
2018-06-20T04:28:59.834Z,63.16
2018-06-20T04:30:06.292Z,63.13
2018-06-20T04:31:12.339Z,62.53
2018-06-20T04:32:17.961Z,62.54
2018-06-20T04:33:23.968Z,62.95
2018-06-20T04:34:29.979Z,62.68
2018-06-20T04:35:36.129Z,62.64
2018-06-20T04:36:42.066Z,62.71
2018-06-20T04:37:48.034Z,61.90
2018-06-20T04:38:54.014Z,62.60
2018-06-20T04:39:59.993Z,62.54
2018-06-20T04:41:06.003Z,62.16
2018-06-20T04:42:12.024Z,62.20
2018-06-20T04:43:18.204Z,61.98
2018-06-20T04:44:24.333Z,61.94
2018-06-20T04:45:30.335Z,62.67
2018-06-20T04:46:36.336Z,62.12
2018-06-20T04:47:42.293Z,62.35
2018-06-20T04:48:48.245Z,61.40
2018-06-20T04:49:54.217Z,61.76
2018-06-20T04:51:00.242Z,61.38
2018-06-20T04:52:06.333Z,61.93
2018-06-20T04:53:12.515Z,61.96
2018-06-20T04:54:18.502Z,61.11
2018-06-20T04:55:24.487Z,61.60
2018-06-20T04:56:30.144Z,61.12
2018-06-20T04:57:36.035Z,61.74
2018-06-20T04:58:42.140Z,61.72
2018-06-20T04:59:48.529Z,61.49
2018-06-20T05:00:55.087Z,61.46
2018-06-20T05:02:01.409Z,60.81
2018-06-20T05:03:07.387Z,60.37
2018-06-20T05:04:13.354Z,60.28
2018-06-20T05:05:19.596Z,60.63
2018-06-20T05:06:25.556Z,60.39
2018-06-20T05:07:31.626Z,60.36
2018-06-20T05:08:37.704Z,59.85
2018-06-20T05:09:43.889Z,60.52
2018-06-20T05:10:51.285Z,60.30
2018-06-20T05:11:57.481Z,59.25
2018-06-20T05:13:03.474Z,59.55
2018-06-20T05:14:09.499Z,58.73
2018-06-20T05:15:15.770Z,58.70
2018-06-20T05:16:21.831Z,58.76
2018-06-20T05:17:27.963Z,58.07
2018-06-20T05:18:33.927Z,58.43
2018-06-20T05:19:39.943Z,58.08
2018-06-20T05:20:46.117Z,57.21
2018-06-20T05:21:52.330Z,57.04
2018-06-20T05:22:58.321Z,57.37
2018-06-20T05:24:04.273Z,56.38
2018-06-20T05:25:10.283Z,56.01
2018-06-20T05:26:16.305Z,55.58
2018-06-20T05:27:22.368Z,55.33
2018-06-20T05:28:28.536Z,55.37
2018-06-20T05:29:34.667Z,54.30
2018-06-20T05:30:40.820Z,54.31
2018-06-20T05:31:46.991Z,54.48
2018-06-20T05:32:53.084Z,53.24
2018-06-20T05:33:59.221Z,53.42
2018-06-20T05:35:05.439Z,53.09
2018-06-20T05:36:11.426Z,52.91
2018-06-20T05:37:17.504Z,53.23
2018-06-20T05:38:23.450Z,52.46
2018-06-20T05:39:29.427Z,52.76
2018-06-20T05:40:35.421Z,53.07
2018-06-20T05:41:41.520Z,51.37
2018-06-20T05:42:47.756Z,52.08
2018-06-20T05:43:53.744Z,51.37
2018-06-20T05:44:59.943Z,51.80
2018-06-20T05:46:06.121Z,51.72
2018-06-20T05:47:12.177Z,51.18
2018-06-20T05:48:18.138Z,50.85
2018-06-20T05:49:24.111Z,51.57
2018-06-20T05:50:30.091Z,51.96
2018-06-20T05:51:36.086Z,51.43
2018-06-20T05:52:42.101Z,51.83
2018-06-20T05:53:48.059Z,52.60
2018-06-20T05:54:54.222Z,52.60
2018-06-20T05:56:00.182Z,52.68
2018-06-20T05:57:06.152Z,52.71
2018-06-20T05:58:12.153Z,52.30
2018-06-20T05:59:18.859Z,52.42
2018-06-20T06:00:24.811Z,52.18
2018-06-20T06:01:30.760Z,51.59
2018-06-20T06:02:36.494Z,51.15
2018-06-20T06:03:42.393Z,50.40
2018-06-20T06:04:48.358Z,50.29
2018-06-20T06:06:10.996Z,50.18
2018-06-20T06:07:16.988Z,50.20
2018-06-20T06:08:23.051Z,49.62
2018-06-20T06:09:29.159Z,49.22
2018-06-20T06:10:35.114Z,49.68
2018-06-20T06:11:41.179Z,50.83
2018-06-20T06:12:48.115Z,49.92
2018-06-20T06:13:54.071Z,50.62
2018-06-20T06:15:00.078Z,50.31
2018-06-20T06:16:06.241Z,50.36
2018-06-20T06:17:12.246Z,50.35
2018-06-20T06:18:18.421Z,49.63
2018-06-20T06:19:24.457Z,48.51
2018-06-20T06:20:30.473Z,49.29
2018-06-20T06:21:36.438Z,48.88
2018-06-20T06:22:42.322Z,48.53
2018-06-20T06:23:48.266Z,48.42
2018-06-20T06:24:54.276Z,48.63
2018-06-20T06:25:59.993Z,48.71
2018-06-20T06:27:05.557Z,48.69
2018-06-20T06:28:11.464Z,48.68
2018-06-20T06:29:17.450Z,48.70
2018-06-20T06:30:23.329Z,47.84
2018-06-20T06:31:29.230Z,48.01
2018-06-20T06:32:35.310Z,47.08
2018-06-20T06:33:41.648Z,45.70
2018-06-20T06:34:47.646Z,45.95
2018-06-20T06:35:53.982Z,45.89
2018-06-20T06:36:59.957Z,44.91
2018-06-20T06:38:06.342Z,45.77
2018-06-20T06:39:13.046Z,44.74
2018-06-20T06:40:19.071Z,44.32
2018-06-20T06:41:25.569Z,44.55
2018-06-20T06:42:31.583Z,44.85
2018-06-20T06:43:37.724Z,45.90
2018-06-20T06:44:43.734Z,44.89
2018-06-20T06:45:49.718Z,45.61
2018-06-20T06:46:55.814Z,45.75
2018-06-20T06:48:02.023Z,44.33
2018-06-20T06:49:08.068Z,45.71
2018-06-20T06:50:14.016Z,44.67
2018-06-20T06:51:20.001Z,45.28
2018-06-20T06:52:25.994Z,45.06
2018-06-20T06:53:32.014Z,45.47
2018-06-20T06:54:38.120Z,45.29
2018-06-20T06:55:44.099Z,45.11
2018-06-20T06:56:50.059Z,45.63
2018-06-20T06:57:56.411Z,45.05
2018-06-20T06:59:02.386Z,45.07
2018-06-20T07:00:08.353Z,45.77
2018-06-20T07:01:14.246Z,45.53
2018-06-20T07:02:20.229Z,44.44
2018-06-20T07:03:26.779Z,45.72
2018-06-20T07:04:34.708Z,44.90
2018-06-20T07:05:42.124Z,45.57
2018-06-20T07:06:49.746Z,44.98
2018-06-20T07:07:56.753Z,43.87
2018-06-20T07:09:02.968Z,44.21
2018-06-20T07:10:09.137Z,44.21
2018-06-20T07:11:15.087Z,44.39
2018-06-20T07:12:21.543Z,44.47
2018-06-20T07:13:27.739Z,43.18
2018-06-20T07:14:34.292Z,42.93
2018-06-20T07:15:40.312Z,42.89
2018-06-20T07:16:46.371Z,43.71
2018-06-20T07:17:52.519Z,43.23
2018-06-20T07:18:58.639Z,44.00
2018-06-20T07:20:04.743Z,44.01
2018-06-20T07:21:11.057Z,44.30
2018-06-20T07:22:17.034Z,45.47
2018-06-20T07:23:23.021Z,45.34
2018-06-20T07:24:29.734Z,44.37
2018-06-20T07:25:35.930Z,44.87
2018-06-20T07:26:41.924Z,45.53
2018-06-20T07:27:47.936Z,46.71
2018-06-20T07:28:54.218Z,46.90
2018-06-20T07:30:00.460Z,47.09
2018-06-20T07:31:06.598Z,46.61
2018-06-20T07:32:12.603Z,47.32
2018-06-20T07:33:18.611Z,46.51
2018-06-20T07:34:24.603Z,46.67
2018-06-20T07:35:30.647Z,47.67
2018-06-20T07:36:37.294Z,48.12
2018-06-20T07:37:43.296Z,47.89
2018-06-20T07:38:49.230Z,47.94
2018-06-20T07:39:55.154Z,46.77
2018-06-20T07:41:01.623Z,47.17
2018-06-20T07:42:07.594Z,45.39
2018-06-20T07:43:13.694Z,45.24
2018-06-20T07:44:20.572Z,44.82
2018-06-20T07:45:27.524Z,43.75
2018-06-20T07:46:34.137Z,43.58
2018-06-20T07:47:40.822Z,42.87
2018-06-20T07:48:46.992Z,42.34
2018-06-20T07:49:53.628Z,42.04
2018-06-20T07:51:00.341Z,42.48
2018-06-20T07:52:07.181Z,42.74
2018-06-20T07:53:14.159Z,41.63
2018-06-20T07:54:21.364Z,41.78
2018-06-20T07:55:28.952Z,40.07
2018-06-20T07:56:35.751Z,41.04
2018-06-20T07:57:42.881Z,40.47
2018-06-20T07:58:53.901Z,40.97
2018-06-20T08:00:05.163Z,41.32
2018-06-20T08:01:22.393Z,41.95
2018-06-20T08:02:50.301Z,41.73
2018-06-20T08:04:02.088Z,41.78
2018-06-20T08:05:13.598Z,41.64
2018-06-20T08:06:24.820Z,41.10
2018-06-20T08:07:36.271Z,42.20
2018-06-20T08:08:47.278Z,41.52
2018-06-20T08:09:58.396Z,41.37
2018-06-20T08:11:09.422Z,40.81
2018-06-20T08:12:21.593Z,39.82
2018-06-20T08:13:33.199Z,40.04
2018-06-20T08:14:44.245Z,39.52
2018-06-20T08:15:55.711Z,39.31
2018-06-20T08:17:05.494Z,39.42
2018-06-20T08:18:16.555Z,38.81
2018-06-20T08:19:58.150Z,39.86
2018-06-20T08:21:05.262Z,38.98
2018-06-20T08:22:11.961Z,39.95
2018-06-20T08:23:18.260Z,39.75
2018-06-20T08:24:24.815Z,39.42
2018-06-20T08:25:31.713Z,39.23
2018-06-20T08:26:38.475Z,37.70
2018-06-20T08:27:45.160Z,37.26
2018-06-20T08:28:52.049Z,36.54
2018-06-20T08:29:59.249Z,35.95
2018-06-20T08:31:05.183Z,35.04
2018-06-20T08:32:11.712Z,35.21
2018-06-20T08:33:17.816Z,34.96
2018-06-20T08:34:23.996Z,34.17
2018-06-20T08:35:33.354Z,33.99
2018-06-20T08:36:39.338Z,33.19
2018-06-20T08:37:45.423Z,33.55
2018-06-20T08:38:51.645Z,33.08
2018-06-20T08:39:57.934Z,31.87
2018-06-20T08:41:04.266Z,32.17
2018-06-20T08:42:10.213Z,31.20
2018-06-20T08:43:16.390Z,30.70
2018-06-20T08:44:22.556Z,28.83
2018-06-20T08:45:28.542Z,29.19
2018-06-20T08:46:34.747Z,28.92
2018-06-20T08:47:40.813Z,28.25
2018-06-20T08:48:47.259Z,28.43
2018-06-20T08:49:53.253Z,28.03
2018-06-20T08:50:59.233Z,28.27
2018-06-20T08:52:05.268Z,29.13
2018-06-20T08:53:11.242Z,29.33
2018-06-20T08:54:17.639Z,28.93
2018-06-20T08:55:23.688Z,28.88
2018-06-20T08:56:30.189Z,28.63
2018-06-20T08:57:36.143Z,28.59
2018-06-20T08:58:42.167Z,28.75
2018-06-20T08:59:48.199Z,28.53
2018-06-20T09:00:59.323Z,28.80
2018-06-20T09:02:05.446Z,29.23
2018-06-20T09:03:11.511Z,30.10
2018-06-20T09:04:22.502Z,30.74
2018-06-20T09:05:33.815Z,31.30
2018-06-20T09:06:44.879Z,31.43
2018-06-20T09:07:55.907Z,31.12
2018-06-20T09:09:07.068Z,30.24
2018-06-20T09:10:18.220Z,29.80
2018-06-20T09:11:29.178Z,28.66
2018-06-20T09:12:40.097Z,28.91
2018-06-20T09:13:51.215Z,28.65
2018-06-20T09:15:02.226Z,28.21
2018-06-20T09:16:13.223Z,27.75
2018-06-20T09:17:24.397Z,27.72
2018-06-20T09:18:35.750Z,27.78
2018-06-20T09:19:46.854Z,27.47
2018-06-20T09:20:52.548Z,26.34
2018-06-20T09:21:58.367Z,25.73
2018-06-20T09:23:04.470Z,25.35
2018-06-20T09:24:10.724Z,25.01
2018-06-20T09:25:16.866Z,23.72
2018-06-20T09:26:22.628Z,23.71
2018-06-20T09:27:28.343Z,23.17
2018-06-20T09:28:34.070Z,22.87
2018-06-20T09:29:39.763Z,23.33
2018-06-20T09:30:45.896Z,22.97
2018-06-20T09:31:51.569Z,22.92
2018-06-20T09:32:57.478Z,22.68
2018-06-20T09:34:03.174Z,23.13
2018-06-20T09:35:09.042Z,22.98
2018-06-20T09:36:14.681Z,22.50
2018-06-20T09:37:20.858Z,22.34
2018-06-20T09:38:26.755Z,21.73
2018-06-20T09:39:32.537Z,21.07
2018-06-20T09:40:38.449Z,21.59
2018-06-20T09:41:44.122Z,21.56
2018-06-20T09:42:49.922Z,21.48
2018-06-20T09:43:55.592Z,21.08
2018-06-20T09:45:01.276Z,20.85
2018-06-20T09:46:07.030Z,20.88
2018-06-20T09:47:12.746Z,21.61
2018-06-20T09:48:18.553Z,21.36
2018-06-20T09:49:24.248Z,21.45
2018-06-20T09:50:35.209Z,21.52
2018-06-20T09:51:40.910Z,21.22
2018-06-20T09:52:46.599Z,20.62
2018-06-20T09:53:52.321Z,21.15
2018-06-20T09:54:57.975Z,22.00
2018-06-20T09:56:03.807Z,22.89
2018-06-20T09:57:09.662Z,23.33
2018-06-20T09:58:16.239Z,23.72
2018-06-20T10:00:26.300Z,24.08
2018-06-20T10:01:36.954Z,23.65
2018-06-20T10:02:48.020Z,23.81
2018-06-20T10:03:58.951Z,22.21
2018-06-20T10:05:10.317Z,22.75
2018-06-20T10:06:21.260Z,22.66
2018-06-20T10:07:32.303Z,22.44
2018-06-20T10:08:43.198Z,22.30
2018-06-20T10:09:54.954Z,22.59
2018-06-20T10:11:05.843Z,23.27
2018-06-20T10:12:12.312Z,23.20
2018-06-20T10:13:19.092Z,22.18
2018-06-20T10:14:24.966Z,21.93
2018-06-20T10:15:30.722Z,21.89
2018-06-20T10:16:36.452Z,21.61
2018-06-20T10:17:42.148Z,21.63
2018-06-20T10:18:47.831Z,21.65
2018-06-20T10:19:53.551Z,21.52
2018-06-20T10:20:59.312Z,21.11
2018-06-20T10:22:05.140Z,21.36
2018-06-20T10:23:10.898Z,21.17
2018-06-20T10:24:16.757Z,21.13
2018-06-20T10:25:22.486Z,21.04
2018-06-20T10:26:28.159Z,20.86
2018-06-20T10:27:33.886Z,20.77
2018-06-20T10:28:39.636Z,21.01
2018-06-20T10:29:45.570Z,21.57
2018-06-20T10:30:51.387Z,22.56
2018-06-20T10:31:57.093Z,22.93
2018-06-20T10:33:02.772Z,23.95
2018-06-20T10:34:08.531Z,24.28
2018-06-20T10:35:14.392Z,24.74
2018-06-20T10:36:20.121Z,25.57
2018-06-20T10:37:25.831Z,25.83
2018-06-20T10:38:31.510Z,26.03
2018-06-20T10:39:37.227Z,26.86
2018-06-20T10:40:42.979Z,26.94
2018-06-20T10:41:48.860Z,26.67
2018-06-20T10:42:54.528Z,27.59
2018-06-20T10:44:00.534Z,27.58
2018-06-20T10:45:11.482Z,28.46
2018-06-20T10:46:22.668Z,28.19
2018-06-20T10:47:34.397Z,29.16
2018-06-20T10:48:41.662Z,29.33
2018-06-20T10:49:48.950Z,28.75
2018-06-20T10:50:55.767Z,28.98
2018-06-20T10:52:02.225Z,30.01
2018-06-20T10:53:08.949Z,30.30
2018-06-20T10:54:15.517Z,29.72
2018-06-20T10:55:21.921Z,29.65
2018-06-20T10:56:33.294Z,29.88
2018-06-20T10:57:45.071Z,29.77
2018-06-20T10:58:56.970Z,30.32
2018-06-20T11:00:08.684Z,30.34
2018-06-20T11:01:20.018Z,29.54
2018-06-20T11:02:31.441Z,29.78
2018-06-20T11:03:42.613Z,30.03
2018-06-20T11:04:53.976Z,30.01
2018-06-20T11:06:05.074Z,30.72
2018-06-20T11:07:16.999Z,30.12
2018-06-20T11:08:28.303Z,29.95
2018-06-20T11:09:39.519Z,30.70
2018-06-20T11:10:51.310Z,30.36
2018-06-20T11:12:02.737Z,30.99
2018-06-20T11:13:10.438Z,31.64
2018-06-20T11:14:17.317Z,31.84
2018-06-20T11:15:23.716Z,31.70
2018-06-20T11:16:31.558Z,31.32
2018-06-20T11:17:38.391Z,31.25
2018-06-20T11:18:51.258Z,31.08
2018-06-20T11:20:01.861Z,30.64
2018-06-20T11:21:08.692Z,31.26
2018-06-20T11:22:15.281Z,29.82
2018-06-20T11:23:21.697Z,30.14
2018-06-20T11:24:28.164Z,30.62
2018-06-20T11:25:35.097Z,30.82
2018-06-20T11:26:41.369Z,31.59
2018-06-20T11:27:48.051Z,31.48
2018-06-20T11:28:55.788Z,32.58
2018-06-20T11:30:02.331Z,33.42
2018-06-20T11:31:08.780Z,33.54
2018-06-20T11:32:15.971Z,33.32
2018-06-20T11:33:22.450Z,33.15
2018-06-20T11:34:29.002Z,32.93
2018-06-20T11:35:35.929Z,32.73
2018-06-20T11:36:42.457Z,32.32
2018-06-20T11:37:49.116Z,32.28
2018-06-20T11:38:59.033Z,32.22
2018-06-20T11:40:07.053Z,31.03
2018-06-20T11:41:13.289Z,31.99
2018-06-20T11:42:19.234Z,31.12
2018-06-20T11:43:25.173Z,30.82
2018-06-20T11:44:31.132Z,30.94
2018-06-20T11:45:42.517Z,31.56
2018-06-20T11:46:53.487Z,31.72
2018-06-20T11:47:59.451Z,31.89
2018-06-20T11:49:05.776Z,31.57
2018-06-20T11:50:12.956Z,31.38
2018-06-20T11:51:18.901Z,31.34
2018-06-20T11:52:30.003Z,31.70
2018-06-20T11:53:36.870Z,30.79
2018-06-20T11:54:42.840Z,31.14
2018-06-20T11:55:48.859Z,32.31
2018-06-20T11:56:54.786Z,32.27
2018-06-20T11:58:06.035Z,32.74
2018-06-20T11:59:17.113Z,32.17
2018-06-20T12:00:28.112Z,31.74
2018-06-20T12:01:39.046Z,31.62
2018-06-20T12:02:50.028Z,32.16
2018-06-20T12:04:01.524Z,32.41
2018-06-20T12:05:12.906Z,32.66
2018-06-20T12:06:24.016Z,32.81
2018-06-20T12:07:35.211Z,32.56
2018-06-20T12:08:46.222Z,32.70
2018-06-20T12:09:57.066Z,32.65
2018-06-20T12:11:08.143Z,32.84
2018-06-20T12:12:19.143Z,31.75
2018-06-20T12:13:30.357Z,31.51
2018-06-20T12:14:41.636Z,31.87
2018-06-20T12:15:52.617Z,31.38
2018-06-20T12:16:57.610Z,31.88
2018-06-20T12:18:08.729Z,31.55
2018-06-20T12:19:20.243Z,31.58
2018-06-20T12:20:31.300Z,31.55
2018-06-20T12:21:42.350Z,30.42
2018-06-20T12:22:53.485Z,30.41
2018-06-20T12:24:04.767Z,30.74
2018-06-20T12:25:15.819Z,31.12
2018-06-20T12:26:26.871Z,29.92
2018-06-20T12:27:37.914Z,30.96
2018-06-20T12:28:48.886Z,30.90
2018-06-20T12:29:59.868Z,30.47
2018-06-20T12:31:11.015Z,30.21
2018-06-20T12:32:22.070Z,30.76
2018-06-20T12:33:33.076Z,30.80
2018-06-20T12:34:44.266Z,30.18
2018-06-20T12:35:55.375Z,30.88
2018-06-20T12:37:06.459Z,30.81
2018-06-20T12:38:17.447Z,30.47
2018-06-20T12:39:22.417Z,30.99
2018-06-20T12:40:33.890Z,30.97
2018-06-20T12:41:44.999Z,30.59
2018-06-20T12:42:55.934Z,30.23
2018-06-20T12:44:08.189Z,30.70
2018-06-20T12:45:17.379Z,30.11
2018-06-20T12:46:34.383Z,30.82
2018-06-20T12:47:49.123Z,30.52
2018-06-20T12:48:56.687Z,30.25
2018-06-20T12:50:05.775Z,29.64
2018-06-20T12:51:12.864Z,29.60
2018-06-20T12:52:20.760Z,29.52
2018-06-20T12:53:26.778Z,30.33
2018-06-20T12:54:33.096Z,29.78
2018-06-20T12:55:44.297Z,29.48
2018-06-20T12:56:51.028Z,29.36
2018-06-20T12:57:57.600Z,29.85
2018-06-20T12:59:04.552Z,29.25
2018-06-20T13:00:15.071Z,29.49
2018-06-20T13:01:22.409Z,30.38
2018-06-20T13:02:29.796Z,29.34
2018-06-20T13:03:36.152Z,30.49
2018-06-20T13:04:44.650Z,29.79
2018-06-20T13:05:57.208Z,30.59
2018-06-20T13:07:03.762Z,30.81
2018-06-20T13:08:10.022Z,30.81
2018-06-20T13:09:16.062Z,31.14
2018-06-20T13:10:23.257Z,30.64
2018-06-20T13:11:29.821Z,31.27
2018-06-20T13:12:35.852Z,30.64
2018-06-20T13:13:41.859Z,30.90
2018-06-20T13:14:48.935Z,31.54
2018-06-20T13:15:57.499Z,31.30
2018-06-20T13:17:04.119Z,30.89
2018-06-20T13:18:11.582Z,31.21
2018-06-20T13:19:19.882Z,31.08
2018-06-20T13:20:27.298Z,30.62
2018-06-20T13:21:34.458Z,31.21
2018-06-20T13:22:41.830Z,30.29
2018-06-20T13:23:49.743Z,31.35
2018-06-20T13:24:57.893Z,31.56
2018-06-20T13:26:07.275Z,30.70
2018-06-20T13:27:19.362Z,31.36
2018-06-20T13:28:26.830Z,31.05
2018-06-20T13:29:35.401Z,31.53
2018-06-20T13:30:44.989Z,31.51
2018-06-20T13:31:57.495Z,31.18
2018-06-20T13:33:10.707Z,31.46
2018-06-20T13:34:22.362Z,31.13
2018-06-20T13:35:34.594Z,31.93
2018-06-20T13:36:46.179Z,31.94
2018-06-20T13:37:57.453Z,32.36
2018-06-20T13:39:08.910Z,32.19
2018-06-20T13:40:20.385Z,32.20
2018-06-20T13:41:29.467Z,31.70
2018-06-20T13:42:40.515Z,31.76
2018-06-20T13:43:51.604Z,31.40
2018-06-20T13:45:01.593Z,31.46
2018-06-20T13:46:12.860Z,31.69
2018-06-20T13:47:24.022Z,32.09
2018-06-20T13:48:32.249Z,31.88
2018-06-20T13:49:38.331Z,31.52
2018-06-20T13:50:44.371Z,31.77
2018-06-20T13:51:50.434Z,31.45
2018-06-20T13:52:56.495Z,32.23
2018-06-20T13:54:02.913Z,32.56
2018-06-20T13:55:09.050Z,32.79
2018-06-20T13:56:15.065Z,32.93
2018-06-20T13:57:21.220Z,32.52
2018-06-20T13:58:27.352Z,31.84
2018-06-20T13:59:33.293Z,32.23
2018-06-20T14:00:39.281Z,32.37
2018-06-20T14:01:45.250Z,32.31
2018-06-20T14:02:51.232Z,31.24
2018-06-20T14:03:57.216Z,31.68
2018-06-20T14:05:03.240Z,32.09
2018-06-20T14:06:09.218Z,32.16
2018-06-20T14:07:15.180Z,31.15
2018-06-20T14:08:21.153Z,31.72
2018-06-20T14:09:27.454Z,31.89
2018-06-20T14:10:33.409Z,31.91
2018-06-20T14:11:39.851Z,31.63
2018-06-20T14:12:45.844Z,32.29
2018-06-20T14:13:52.010Z,31.98
2018-06-20T14:14:57.999Z,31.40
2018-06-20T14:16:03.952Z,31.31
2018-06-20T14:17:09.920Z,31.09
2018-06-20T14:18:15.878Z,31.83
2018-06-20T14:19:25.881Z,31.94
2018-06-20T14:20:36.955Z,31.75
2018-06-20T14:21:43.114Z,31.81
2018-06-20T14:22:49.056Z,31.46
2018-06-20T14:23:55.002Z,31.43
2018-06-20T14:25:01.110Z,30.95
2018-06-20T14:26:07.083Z,30.28